sensor_id;sensor_type;location;lat;lon;timestamp;temperature;humidity
75430;DHT22;64127;51.488;5.462;2024-02-21T00:01:36;10.20;99.90
75430;DHT22;64127;51.488;5.462;2024-02-21T00:04:08;10.20;99.90
75430;DHT22;64127;51.488;5.462;2024-02-21T00:06:41;10.20;99.90
75430;DHT22;64127;51.488;5.462;2024-02-21T00:09:13;10.20;99.90
75430;DHT22;64127;51.488;5.462;2024-02-21T00:11:45;10.10;99.90
75430;DHT22;64127;51.488;5.462;2024-02-21T00:14:17;10.20;99.90
75430;DHT22;64127;51.488;5.462;2024-02-21T00:16:49;10.20;99.90
75430;DHT22;64127;51.488;5.462;2024-02-21T00:19:21;10.20;99.90
75430;DHT22;64127;51.488;5.462;2024-02-21T00:21:53;10.10;99.90
75430;DHT22;64127;51.488;5.462;2024-02-21T00:24:25;10.20;99.90
75430;DHT22;64127;51.488;5.462;2024-02-21T00:26:57;10.10;99.90
75430;DHT22;64127;51.488;5.462;2024-02-21T00:29:29;10.10;99.90
75430;DHT22;64127;51.488;5.462;2024-02-21T00:32:01;10.10;99.90
75430;DHT22;64127;51.488;5.462;2024-02-21T00:34:33;10.10;99.90
75430;DHT22;64127;51.488;5.462;2024-02-21T00:37:07;10.10;99.90
75430;DHT22;64127;51.488;5.462;2024-02-21T00:39:39;10.10;99.90
75430;DHT22;64127;51.488;5.462;2024-02-21T00:42:11;10.10;99.90
75430;DHT22;64127;51.488;5.462;2024-02-21T00:44:43;10.10;99.90
75430;DHT22;64127;51.488;5.462;2024-02-21T00:47:15;10.10;99.90
75430;DHT22;64127;51.488;5.462;2024-02-21T00:49:47;10.10;99.90
75430;DHT22;64127;51.488;5.462;2024-02-21T00:52:20;10.10;99.90
75430;DHT22;64127;51.488;5.462;2024-02-21T00:54:51;10.00;99.90
75430;DHT22;64127;51.488;5.462;2024-02-21T00:57:26;10.00;99.90
75430;DHT22;64127;51.488;5.462;2024-02-21T00:59:58;10.00;99.90
75430;DHT22;64127;51.488;5.462;2024-02-21T01:02:30;9.90;99.90
75430;DHT22;64127;51.488;5.462;2024-02-21T01:05:05;9.90;99.90
75430;DHT22;64127;51.488;5.462;2024-02-21T01:07:37;9.90;99.90
75430;DHT22;64127;51.488;5.462;2024-02-21T01:10:10;9.90;99.90
75430;DHT22;64127;51.488;5.462;2024-02-21T01:12:42;9.90;99.90
75430;DHT22;64127;51.488;5.462;2024-02-21T01:15:14;9.90;99.90
75430;DHT22;64127;51.488;5.462;2024-02-21T01:17:46;9.90;99.90
75430;DHT22;64127;51.488;5.462;2024-02-21T01:20:19;9.90;99.90
75430;DHT22;64127;51.488;5.462;2024-02-21T01:22:51;9.90;99.90
75430;DHT22;64127;51.488;5.462;2024-02-21T01:25:23;10.00;99.90
75430;DHT22;64127;51.488;5.462;2024-02-21T01:27:55;9.90;99.90
75430;DHT22;64127;51.488;5.462;2024-02-21T01:30:27;9.90;99.90
75430;DHT22;64127;51.488;5.462;2024-02-21T01:32:59;9.90;99.90
75430;DHT22;64127;51.488;5.462;2024-02-21T01:35:31;9.90;99.90
75430;DHT22;64127;51.488;5.462;2024-02-21T01:38:03;9.90;99.90
75430;DHT22;64127;51.488;5.462;2024-02-21T01:40:36;9.90;99.90
75430;DHT22;64127;51.488;5.462;2024-02-21T01:43:16;9.90;99.90
75430;DHT22;64127;51.488;5.462;2024-02-21T01:45:53;9.90;99.90
75430;DHT22;64127;51.488;5.462;2024-02-21T01:48:27;9.90;99.90
75430;DHT22;64127;51.488;5.462;2024-02-21T01:50:59;10.00;99.90
75430;DHT22;64127;51.488;5.462;2024-02-21T01:53:38;10.00;99.90
75430;DHT22;64127;51.488;5.462;2024-02-21T01:56:14;10.00;99.90
75430;DHT22;64127;51.488;5.462;2024-02-21T01:58:48;10.00;99.90
75430;DHT22;64127;51.488;5.462;2024-02-21T02:01:21;10.00;99.90
75430;DHT22;64127;51.488;5.462;2024-02-21T02:03:55;10.00;99.90
75430;DHT22;64127;51.488;5.462;2024-02-21T02:06:27;10.00;99.90
75430;DHT22;64127;51.488;5.462;2024-02-21T02:08:59;10.00;99.90
75430;DHT22;64127;51.488;5.462;2024-02-21T02:11:32;10.00;99.90
75430;DHT22;64127;51.488;5.462;2024-02-21T02:14:05;10.00;99.90
75430;DHT22;64127;51.488;5.462;2024-02-21T02:16:37;10.00;99.90
75430;DHT22;64127;51.488;5.462;2024-02-21T02:19:09;10.00;99.90
75430;DHT22;64127;51.488;5.462;2024-02-21T02:21:50;10.00;99.90
75430;DHT22;64127;51.488;5.462;2024-02-21T02:24:28;10.00;99.90
75430;DHT22;64127;51.488;5.462;2024-02-21T02:27:00;10.00;99.90
75430;DHT22;64127;51.488;5.462;2024-02-21T02:29:32;10.00;99.90
75430;DHT22;64127;51.488;5.462;2024-02-21T02:32:05;10.00;99.90
75430;DHT22;64127;51.488;5.462;2024-02-21T02:34:37;9.90;99.90
75430;DHT22;64127;51.488;5.462;2024-02-21T02:37:09;10.00;99.90
75430;DHT22;64127;51.488;5.462;2024-02-21T02:39:42;9.90;99.90
75430;DHT22;64127;51.488;5.462;2024-02-21T02:42:14;9.90;99.90
75430;DHT22;64127;51.488;5.462;2024-02-21T02:44:46;9.90;99.90
75430;DHT22;64127;51.488;5.462;2024-02-21T02:47:18;9.90;99.90
75430;DHT22;64127;51.488;5.462;2024-02-21T02:49:50;9.90;99.90
75430;DHT22;64127;51.488;5.462;2024-02-21T02:52:22;9.90;99.90
75430;DHT22;64127;51.488;5.462;2024-02-21T02:54:54;9.90;99.90
75430;DHT22;64127;51.488;5.462;2024-02-21T02:57:27;9.90;99.90
75430;DHT22;64127;51.488;5.462;2024-02-21T02:59:59;9.90;99.90
75430;DHT22;64127;51.488;5.462;2024-02-21T03:02:31;9.90;99.90
75430;DHT22;64127;51.488;5.462;2024-02-21T03:05:20;9.90;99.90
75430;DHT22;64127;51.488;5.462;2024-02-21T03:07:53;9.90;99.90
75430;DHT22;64127;51.488;5.462;2024-02-21T03:10:46;9.90;99.90
75430;DHT22;64127;51.488;5.462;2024-02-21T03:13:19;9.90;99.90
75430;DHT22;64127;51.488;5.462;2024-02-21T03:15:51;9.90;99.90
75430;DHT22;64127;51.488;5.462;2024-02-21T03:18:23;9.90;99.90
75430;DHT22;64127;51.488;5.462;2024-02-21T03:20:55;9.90;99.90
75430;DHT22;64127;51.488;5.462;2024-02-21T03:23:27;9.90;99.90
75430;DHT22;64127;51.488;5.462;2024-02-21T03:25:59;9.90;99.90
75430;DHT22;64127;51.488;5.462;2024-02-21T03:28:31;9.90;99.90
75430;DHT22;64127;51.488;5.462;2024-02-21T03:31:03;9.90;99.90
75430;DHT22;64127;51.488;5.462;2024-02-21T03:33:35;9.90;99.90
75430;DHT22;64127;51.488;5.462;2024-02-21T03:36:13;9.90;99.90
75430;DHT22;64127;51.488;5.462;2024-02-21T03:38:46;9.90;99.90
75430;DHT22;64127;51.488;5.462;2024-02-21T03:41:19;9.90;99.90
75430;DHT22;64127;51.488;5.462;2024-02-21T03:43:54;9.90;99.90
75430;DHT22;64127;51.488;5.462;2024-02-21T03:46:26;9.90;99.90
75430;DHT22;64127;51.488;5.462;2024-02-21T03:48:59;9.90;99.90
75430;DHT22;64127;51.488;5.462;2024-02-21T03:51:32;9.90;99.90
75430;DHT22;64127;51.488;5.462;2024-02-21T03:54:04;9.90;99.90
75430;DHT22;64127;51.488;5.462;2024-02-21T03:56:39;10.00;99.90
75430;DHT22;64127;51.488;5.462;2024-02-21T03:59:12;9.90;99.90
75430;DHT22;64127;51.488;5.462;2024-02-21T04:01:43;9.90;99.90
75430;DHT22;64127;51.488;5.462;2024-02-21T04:04:15;10.00;99.90
75430;DHT22;64127;51.488;5.462;2024-02-21T04:06:48;10.00;99.90
75430;DHT22;64127;51.488;5.462;2024-02-21T04:09:21;10.00;99.90
75430;DHT22;64127;51.488;5.462;2024-02-21T04:11:53;10.00;99.90
75430;DHT22;64127;51.488;5.462;2024-02-21T04:14:25;10.00;99.90
75430;DHT22;64127;51.488;5.462;2024-02-21T04:16:57;10.00;99.90
75430;DHT22;64127;51.488;5.462;2024-02-21T04:19:29;10.00;99.90
75430;DHT22;64127;51.488;5.462;2024-02-21T04:22:03;10.00;99.90
75430;DHT22;64127;51.488;5.462;2024-02-21T04:24:35;10.00;99.90
75430;DHT22;64127;51.488;5.462;2024-02-21T04:27:07;9.90;99.90
75430;DHT22;64127;51.488;5.462;2024-02-21T04:29:39;10.00;99.90
75430;DHT22;64127;51.488;5.462;2024-02-21T04:32:11;9.90;99.90
75430;DHT22;64127;51.488;5.462;2024-02-21T04:34:43;9.90;99.90
75430;DHT22;64127;51.488;5.462;2024-02-21T04:37:15;9.90;99.90
75430;DHT22;64127;51.488;5.462;2024-02-21T04:39:48;9.90;99.90
75430;DHT22;64127;51.488;5.462;2024-02-21T04:42:20;9.90;99.90
75430;DHT22;64127;51.488;5.462;2024-02-21T04:44:52;9.90;99.90
75430;DHT22;64127;51.488;5.462;2024-02-21T04:47:24;9.90;99.90
75430;DHT22;64127;51.488;5.462;2024-02-21T04:49:56;9.90;99.90
75430;DHT22;64127;51.488;5.462;2024-02-21T04:52:29;9.90;99.90
75430;DHT22;64127;51.488;5.462;2024-02-21T04:55:01;9.90;99.90
75430;DHT22;64127;51.488;5.462;2024-02-21T04:57:33;9.90;99.90
75430;DHT22;64127;51.488;5.462;2024-02-21T05:00:06;9.90;99.90
75430;DHT22;64127;51.488;5.462;2024-02-21T05:02:39;9.90;99.90
75430;DHT22;64127;51.488;5.462;2024-02-21T05:05:11;9.90;99.90
75430;DHT22;64127;51.488;5.462;2024-02-21T05:07:43;9.90;99.90
75430;DHT22;64127;51.488;5.462;2024-02-21T05:10:15;9.90;99.90
75430;DHT22;64127;51.488;5.462;2024-02-21T05:12:49;9.90;99.90
75430;DHT22;64127;51.488;5.462;2024-02-21T05:15:21;9.90;99.90
75430;DHT22;64127;51.488;5.462;2024-02-21T05:17:54;9.90;99.90
75430;DHT22;64127;51.488;5.462;2024-02-21T05:20:26;9.90;99.90
75430;DHT22;64127;51.488;5.462;2024-02-21T05:22:58;9.90;99.90
75430;DHT22;64127;51.488;5.462;2024-02-21T05:25:30;9.90;99.90
75430;DHT22;64127;51.488;5.462;2024-02-21T05:28:02;9.90;99.90
75430;DHT22;64127;51.488;5.462;2024-02-21T05:30:34;9.90;99.90
75430;DHT22;64127;51.488;5.462;2024-02-21T05:33:07;9.90;99.90
75430;DHT22;64127;51.488;5.462;2024-02-21T05:35:39;9.90;99.90
75430;DHT22;64127;51.488;5.462;2024-02-21T05:38:11;9.90;99.90
75430;DHT22;64127;51.488;5.462;2024-02-21T05:40:46;9.90;99.90
75430;DHT22;64127;51.488;5.462;2024-02-21T05:43:18;9.80;99.90
75430;DHT22;64127;51.488;5.462;2024-02-21T05:45:53;9.80;99.90
75430;DHT22;64127;51.488;5.462;2024-02-21T05:48:25;9.80;99.90
75430;DHT22;64127;51.488;5.462;2024-02-21T05:50:57;9.80;99.90
75430;DHT22;64127;51.488;5.462;2024-02-21T05:53:29;9.80;99.90
75430;DHT22;64127;51.488;5.462;2024-02-21T05:56:01;9.80;99.90
75430;DHT22;64127;51.488;5.462;2024-02-21T05:58:33;9.80;99.90
75430;DHT22;64127;51.488;5.462;2024-02-21T06:01:05;9.80;99.90
75430;DHT22;64127;51.488;5.462;2024-02-21T06:03:38;9.80;99.90
75430;DHT22;64127;51.488;5.462;2024-02-21T06:06:10;9.80;99.90
75430;DHT22;64127;51.488;5.462;2024-02-21T06:08:42;9.80;99.90
75430;DHT22;64127;51.488;5.462;2024-02-21T06:11:14;9.80;99.90
75430;DHT22;64127;51.488;5.462;2024-02-21T06:13:47;9.80;99.90
75430;DHT22;64127;51.488;5.462;2024-02-21T06:16:19;9.80;99.90
75430;DHT22;64127;51.488;5.462;2024-02-21T06:18:52;9.80;99.90
75430;DHT22;64127;51.488;5.462;2024-02-21T06:21:29;9.80;99.90
75430;DHT22;64127;51.488;5.462;2024-02-21T06:24:01;9.80;99.90
75430;DHT22;64127;51.488;5.462;2024-02-21T06:26:33;9.80;99.90
75430;DHT22;64127;51.488;5.462;2024-02-21T06:29:05;9.80;99.90
75430;DHT22;64127;51.488;5.462;2024-02-21T06:31:38;9.80;99.90
75430;DHT22;64127;51.488;5.462;2024-02-21T06:34:10;9.80;99.90
75430;DHT22;64127;51.488;5.462;2024-02-21T06:36:42;9.80;99.90
75430;DHT22;64127;51.488;5.462;2024-02-21T06:39:14;9.80;99.90
75430;DHT22;64127;51.488;5.462;2024-02-21T06:41:46;9.90;99.90
75430;DHT22;64127;51.488;5.462;2024-02-21T06:44:19;9.90;99.90
75430;DHT22;64127;51.488;5.462;2024-02-21T06:46:52;9.90;99.90
75430;DHT22;64127;51.488;5.462;2024-02-21T06:49:26;9.90;99.90
75430;DHT22;64127;51.488;5.462;2024-02-21T06:51:58;9.90;99.90
75430;DHT22;64127;51.488;5.462;2024-02-21T06:54:30;9.90;99.90
75430;DHT22;64127;51.488;5.462;2024-02-21T06:57:02;9.90;99.90
75430;DHT22;64127;51.488;5.462;2024-02-21T06:59:35;9.90;99.90
75430;DHT22;64127;51.488;5.462;2024-02-21T07:02:07;9.90;99.90
75430;DHT22;64127;51.488;5.462;2024-02-21T07:04:39;9.90;99.90
75430;DHT22;64127;51.488;5.462;2024-02-21T07:07:12;9.90;99.90
75430;DHT22;64127;51.488;5.462;2024-02-21T07:09:44;9.90;99.90
75430;DHT22;64127;51.488;5.462;2024-02-21T07:12:18;9.90;99.90
75430;DHT22;64127;51.488;5.462;2024-02-21T07:14:50;9.90;99.90
75430;DHT22;64127;51.488;5.462;2024-02-21T07:17:22;9.90;99.90
75430;DHT22;64127;51.488;5.462;2024-02-21T07:19:54;9.90;99.90
75430;DHT22;64127;51.488;5.462;2024-02-21T07:22:28;9.90;99.90
75430;DHT22;64127;51.488;5.462;2024-02-21T07:25:01;9.90;99.90
75430;DHT22;64127;51.488;5.462;2024-02-21T07:27:37;9.90;99.90
75430;DHT22;64127;51.488;5.462;2024-02-21T07:30:09;9.90;99.90
75430;DHT22;64127;51.488;5.462;2024-02-21T07:32:45;9.90;99.90
75430;DHT22;64127;51.488;5.462;2024-02-21T07:35:19;9.90;99.90
75430;DHT22;64127;51.488;5.462;2024-02-21T07:37:52;9.90;99.90
75430;DHT22;64127;51.488;5.462;2024-02-21T07:40:24;9.90;99.90
75430;DHT22;64127;51.488;5.462;2024-02-21T07:42:56;9.90;99.90
75430;DHT22;64127;51.488;5.462;2024-02-21T07:45:28;9.90;99.90
75430;DHT22;64127;51.488;5.462;2024-02-21T07:48:00;9.90;99.90
75430;DHT22;64127;51.488;5.462;2024-02-21T07:50:32;9.90;99.90
75430;DHT22;64127;51.488;5.462;2024-02-21T07:53:04;9.90;99.90
75430;DHT22;64127;51.488;5.462;2024-02-21T07:55:36;9.90;99.90
75430;DHT22;64127;51.488;5.462;2024-02-21T07:58:08;9.90;99.90
75430;DHT22;64127;51.488;5.462;2024-02-21T08:00:40;9.90;99.90
75430;DHT22;64127;51.488;5.462;2024-02-21T08:03:13;10.00;99.90
75430;DHT22;64127;51.488;5.462;2024-02-21T08:05:47;9.90;99.90
75430;DHT22;64127;51.488;5.462;2024-02-21T08:08:19;9.90;99.90
75430;DHT22;64127;51.488;5.462;2024-02-21T08:10:53;10.00;99.90
75430;DHT22;64127;51.488;5.462;2024-02-21T08:13:25;9.90;99.90
75430;DHT22;64127;51.488;5.462;2024-02-21T08:15:59;10.00;99.90
75430;DHT22;64127;51.488;5.462;2024-02-21T08:18:31;10.00;99.90
75430;DHT22;64127;51.488;5.462;2024-02-21T08:21:03;10.00;99.90
75430;DHT22;64127;51.488;5.462;2024-02-21T08:23:35;10.00;99.90
75430;DHT22;64127;51.488;5.462;2024-02-21T08:26:07;10.10;99.90
75430;DHT22;64127;51.488;5.462;2024-02-21T08:28:39;10.10;99.90
75430;DHT22;64127;51.488;5.462;2024-02-21T08:31:19;10.10;99.90
75430;DHT22;64127;51.488;5.462;2024-02-21T08:33:51;10.10;99.90
75430;DHT22;64127;51.488;5.462;2024-02-21T08:36:23;10.10;99.90
75430;DHT22;64127;51.488;5.462;2024-02-21T08:38:56;10.10;99.90
75430;DHT22;64127;51.488;5.462;2024-02-21T08:41:30;10.10;99.90
75430;DHT22;64127;51.488;5.462;2024-02-21T08:44:23;10.10;99.90
75430;DHT22;64127;51.488;5.462;2024-02-21T08:46:58;10.10;99.90
75430;DHT22;64127;51.488;5.462;2024-02-21T08:49:31;10.20;99.90
75430;DHT22;64127;51.488;5.462;2024-02-21T08:52:06;10.20;99.90
75430;DHT22;64127;51.488;5.462;2024-02-21T08:54:38;10.20;99.90
75430;DHT22;64127;51.488;5.462;2024-02-21T08:57:10;10.20;99.90
75430;DHT22;64127;51.488;5.462;2024-02-21T08:59:42;10.20;99.90
75430;DHT22;64127;51.488;5.462;2024-02-21T09:02:14;10.20;99.90
75430;DHT22;64127;51.488;5.462;2024-02-21T09:04:49;10.10;99.90
75430;DHT22;64127;51.488;5.462;2024-02-21T09:07:21;10.10;99.90
75430;DHT22;64127;51.488;5.462;2024-02-21T09:09:53;10.10;99.90
75430;DHT22;64127;51.488;5.462;2024-02-21T09:12:25;10.10;99.90
75430;DHT22;64127;51.488;5.462;2024-02-21T09:14:57;10.10;99.90
75430;DHT22;64127;51.488;5.462;2024-02-21T09:17:29;10.10;99.90
75430;DHT22;64127;51.488;5.462;2024-02-21T09:20:02;10.00;99.90
75430;DHT22;64127;51.488;5.462;2024-02-21T09:22:35;10.00;99.90
75430;DHT22;64127;51.488;5.462;2024-02-21T09:25:08;10.00;99.90
75430;DHT22;64127;51.488;5.462;2024-02-21T09:27:43;10.00;99.90
75430;DHT22;64127;51.488;5.462;2024-02-21T09:30:16;10.00;99.90
75430;DHT22;64127;51.488;5.462;2024-02-21T09:32:48;9.90;99.90
75430;DHT22;64127;51.488;5.462;2024-02-21T09:35:20;9.90;99.90
75430;DHT22;64127;51.488;5.462;2024-02-21T09:37:55;9.90;99.90
75430;DHT22;64127;51.488;5.462;2024-02-21T09:40:27;9.90;99.90
75430;DHT22;64127;51.488;5.462;2024-02-21T09:43:03;9.90;99.90
75430;DHT22;64127;51.488;5.462;2024-02-21T09:45:38;10.00;99.90
75430;DHT22;64127;51.488;5.462;2024-02-21T09:51:50;10.00;99.90
75430;DHT22;64127;51.488;5.462;2024-02-21T09:54:27;10.00;99.90
75430;DHT22;64127;51.488;5.462;2024-02-21T09:57:01;10.00;99.90
75430;DHT22;64127;51.488;5.462;2024-02-21T09:59:39;10.00;99.90
75430;DHT22;64127;51.488;5.462;2024-02-21T10:02:13;10.10;99.90
75430;DHT22;64127;51.488;5.462;2024-02-21T10:04:45;10.10;99.90
75430;DHT22;64127;51.488;5.462;2024-02-21T10:07:18;10.20;99.90
75430;DHT22;64127;51.488;5.462;2024-02-21T10:10:03;10.20;99.90
75430;DHT22;64127;51.488;5.462;2024-02-21T10:12:36;10.20;99.90
75430;DHT22;64127;51.488;5.462;2024-02-21T10:15:08;10.30;99.90
75430;DHT22;64127;51.488;5.462;2024-02-21T10:17:40;10.30;99.90
75430;DHT22;64127;51.488;5.462;2024-02-21T10:20:12;10.40;99.90
75430;DHT22;64127;51.488;5.462;2024-02-21T10:22:47;10.40;99.90
75430;DHT22;64127;51.488;5.462;2024-02-21T10:25:19;10.40;99.90
75430;DHT22;64127;51.488;5.462;2024-02-21T10:27:52;10.50;99.90
75430;DHT22;64127;51.488;5.462;2024-02-21T10:30:24;10.50;99.90
75430;DHT22;64127;51.488;5.462;2024-02-21T10:32:56;10.50;99.90
75430;DHT22;64127;51.488;5.462;2024-02-21T10:35:33;10.60;99.90
75430;DHT22;64127;51.488;5.462;2024-02-21T10:38:05;10.60;99.90
75430;DHT22;64127;51.488;5.462;2024-02-21T10:40:37;10.60;99.90
75430;DHT22;64127;51.488;5.462;2024-02-21T10:43:13;10.70;99.90
75430;DHT22;64127;51.488;5.462;2024-02-21T10:45:46;10.70;99.90
75430;DHT22;64127;51.488;5.462;2024-02-21T10:48:25;10.70;99.90
75430;DHT22;64127;51.488;5.462;2024-02-21T10:51:26;10.80;99.90
75430;DHT22;64127;51.488;5.462;2024-02-21T10:56:46;10.90;99.90
75430;DHT22;64127;51.488;5.462;2024-02-21T10:59:21;10.90;99.90
75430;DHT22;64127;51.488;5.462;2024-02-21T11:01:55;10.90;99.90
75430;DHT22;64127;51.488;5.462;2024-02-21T11:04:31;10.90;99.90
75430;DHT22;64127;51.488;5.462;2024-02-21T11:07:08;10.90;99.90
75430;DHT22;64127;51.488;5.462;2024-02-21T11:09:51;10.90;99.90
75430;DHT22;64127;51.488;5.462;2024-02-21T11:12:27;10.90;99.90
75430;DHT22;64127;51.488;5.462;2024-02-21T11:15:06;10.90;99.90
75430;DHT22;64127;51.488;5.462;2024-02-21T11:17:38;10.90;99.90
75430;DHT22;64127;51.488;5.462;2024-02-21T11:20:21;10.90;99.90
75430;DHT22;64127;51.488;5.462;2024-02-21T11:23:04;10.90;99.90
75430;DHT22;64127;51.488;5.462;2024-02-21T11:25:37;11.00;99.90
75430;DHT22;64127;51.488;5.462;2024-02-21T11:28:09;11.00;99.90
75430;DHT22;64127;51.488;5.462;2024-02-21T11:30:42;11.00;99.90
75430;DHT22;64127;51.488;5.462;2024-02-21T11:33:16;11.00;99.90
75430;DHT22;64127;51.488;5.462;2024-02-21T11:35:49;11.00;99.90
75430;DHT22;64127;51.488;5.462;2024-02-21T11:38:22;11.10;99.90
75430;DHT22;64127;51.488;5.462;2024-02-21T11:40:56;11.20;99.90
75430;DHT22;64127;51.488;5.462;2024-02-21T11:43:30;11.40;99.90
75430;DHT22;64127;51.488;5.462;2024-02-21T11:46:02;11.50;99.90
75430;DHT22;64127;51.488;5.462;2024-02-21T11:48:35;11.50;99.90
75430;DHT22;64127;51.488;5.462;2024-02-21T11:51:07;11.50;99.90
75430;DHT22;64127;51.488;5.462;2024-02-21T11:53:39;11.50;99.90
75430;DHT22;64127;51.488;5.462;2024-02-21T11:56:25;11.50;99.90
75430;DHT22;64127;51.488;5.462;2024-02-21T11:58:59;11.50;99.90
75430;DHT22;64127;51.488;5.462;2024-02-21T12:01:31;11.50;99.90
75430;DHT22;64127;51.488;5.462;2024-02-21T12:04:03;11.50;99.90
75430;DHT22;64127;51.488;5.462;2024-02-21T12:06:35;11.60;99.90
75430;DHT22;64127;51.488;5.462;2024-02-21T12:09:08;11.70;99.90
75430;DHT22;64127;51.488;5.462;2024-02-21T12:11:56;11.70;99.90
75430;DHT22;64127;51.488;5.462;2024-02-21T12:14:30;11.70;99.90
75430;DHT22;64127;51.488;5.462;2024-02-21T12:17:03;11.80;99.90
75430;DHT22;64127;51.488;5.462;2024-02-21T12:19:38;11.90;99.90
75430;DHT22;64127;51.488;5.462;2024-02-21T12:22:17;11.90;99.90
75430;DHT22;64127;51.488;5.462;2024-02-21T12:24:50;11.90;99.90
75430;DHT22;64127;51.488;5.462;2024-02-21T12:27:22;12.00;99.90
75430;DHT22;64127;51.488;5.462;2024-02-21T12:29:55;12.00;99.90
75430;DHT22;64127;51.488;5.462;2024-02-21T12:32:27;12.00;99.90
75430;DHT22;64127;51.488;5.462;2024-02-21T12:34:59;12.00;99.90
75430;DHT22;64127;51.488;5.462;2024-02-21T12:37:32;12.00;99.90
75430;DHT22;64127;51.488;5.462;2024-02-21T12:40:08;12.00;99.90
75430;DHT22;64127;51.488;5.462;2024-02-21T12:42:42;12.00;99.90
75430;DHT22;64127;51.488;5.462;2024-02-21T12:45:14;12.10;99.90
75430;DHT22;64127;51.488;5.462;2024-02-21T12:47:47;12.00;99.90
75430;DHT22;64127;51.488;5.462;2024-02-21T12:50:19;12.00;99.90
75430;DHT22;64127;51.488;5.462;2024-02-21T12:52:52;12.00;99.90
75430;DHT22;64127;51.488;5.462;2024-02-21T12:55:24;12.00;99.90
75430;DHT22;64127;51.488;5.462;2024-02-21T12:57:56;11.90;99.90
75430;DHT22;64127;51.488;5.462;2024-02-21T13:00:29;12.00;99.90
75430;DHT22;64127;51.488;5.462;2024-02-21T13:03:03;11.90;99.90
75430;DHT22;64127;51.488;5.462;2024-02-21T13:05:36;11.90;99.90
75430;DHT22;64127;51.488;5.462;2024-02-21T13:08:09;11.90;99.90
75430;DHT22;64127;51.488;5.462;2024-02-21T13:10:41;11.90;99.90
75430;DHT22;64127;51.488;5.462;2024-02-21T13:13:13;11.80;99.90
75430;DHT22;64127;51.488;5.462;2024-02-21T13:15:45;11.90;99.90
75430;DHT22;64127;51.488;5.462;2024-02-21T13:18:17;11.80;99.90
75430;DHT22;64127;51.488;5.462;2024-02-21T13:20:49;11.80;99.90
75430;DHT22;64127;51.488;5.462;2024-02-21T13:23:22;11.80;99.90
75430;DHT22;64127;51.488;5.462;2024-02-21T13:25:54;11.90;99.90
75430;DHT22;64127;51.488;5.462;2024-02-21T13:28:26;11.90;99.90
75430;DHT22;64127;51.488;5.462;2024-02-21T13:30:58;11.80;99.90
75430;DHT22;64127;51.488;5.462;2024-02-21T13:33:30;11.80;99.90
75430;DHT22;64127;51.488;5.462;2024-02-21T13:36:02;11.80;99.90
75430;DHT22;64127;51.488;5.462;2024-02-21T13:38:35;11.80;99.90
75430;DHT22;64127;51.488;5.462;2024-02-21T13:41:07;11.80;99.90
75430;DHT22;64127;51.488;5.462;2024-02-21T13:43:39;11.80;99.90
75430;DHT22;64127;51.488;5.462;2024-02-21T13:46:11;11.80;99.90
75430;DHT22;64127;51.488;5.462;2024-02-21T13:48:43;11.80;99.90
75430;DHT22;64127;51.488;5.462;2024-02-21T13:51:15;11.80;99.90
75430;DHT22;64127;51.488;5.462;2024-02-21T13:53:48;11.80;99.90
75430;DHT22;64127;51.488;5.462;2024-02-21T13:56:20;11.80;99.90
75430;DHT22;64127;51.488;5.462;2024-02-21T13:58:52;11.80;99.90
75430;DHT22;64127;51.488;5.462;2024-02-21T14:01:24;11.80;99.90
75430;DHT22;64127;51.488;5.462;2024-02-21T14:03:56;11.80;99.90
75430;DHT22;64127;51.488;5.462;2024-02-21T14:06:28;11.70;99.90
75430;DHT22;64127;51.488;5.462;2024-02-21T14:09:01;11.70;99.90
75430;DHT22;64127;51.488;5.462;2024-02-21T14:11:33;11.70;99.90
75430;DHT22;64127;51.488;5.462;2024-02-21T14:14:05;11.70;99.90
75430;DHT22;64127;51.488;5.462;2024-02-21T14:16:38;11.70;99.90
75430;DHT22;64127;51.488;5.462;2024-02-21T14:19:10;11.70;99.90
75430;DHT22;64127;51.488;5.462;2024-02-21T14:21:43;11.70;99.90
75430;DHT22;64127;51.488;5.462;2024-02-21T14:24:16;11.70;99.90
75430;DHT22;64127;51.488;5.462;2024-02-21T14:26:48;11.70;99.90
75430;DHT22;64127;51.488;5.462;2024-02-21T14:29:22;11.70;99.90
75430;DHT22;64127;51.488;5.462;2024-02-21T14:31:54;11.70;99.90
75430;DHT22;64127;51.488;5.462;2024-02-21T14:34:26;11.70;99.90
75430;DHT22;64127;51.488;5.462;2024-02-21T14:36:58;11.70;99.90
75430;DHT22;64127;51.488;5.462;2024-02-21T14:39:30;11.60;99.90
75430;DHT22;64127;51.488;5.462;2024-02-21T14:42:04;11.70;99.90
75430;DHT22;64127;51.488;5.462;2024-02-21T14:44:36;11.60;99.90
75430;DHT22;64127;51.488;5.462;2024-02-21T14:47:09;11.60;99.90
75430;DHT22;64127;51.488;5.462;2024-02-21T14:49:41;11.60;99.90
75430;DHT22;64127;51.488;5.462;2024-02-21T14:52:13;11.60;99.90
75430;DHT22;64127;51.488;5.462;2024-02-21T14:54:45;11.60;99.90
75430;DHT22;64127;51.488;5.462;2024-02-21T14:57:21;11.60;99.90
75430;DHT22;64127;51.488;5.462;2024-02-21T14:59:53;11.50;99.90
75430;DHT22;64127;51.488;5.462;2024-02-21T15:02:28;11.50;99.90
75430;DHT22;64127;51.488;5.462;2024-02-21T15:05:01;11.40;99.90
75430;DHT22;64127;51.488;5.462;2024-02-21T15:07:33;11.40;99.90
75430;DHT22;64127;51.488;5.462;2024-02-21T15:10:05;11.30;99.90
75430;DHT22;64127;51.488;5.462;2024-02-21T15:12:38;11.30;99.90
75430;DHT22;64127;51.488;5.462;2024-02-21T15:15:10;11.20;99.90
75430;DHT22;64127;51.488;5.462;2024-02-21T15:17:42;11.30;99.90
75430;DHT22;64127;51.488;5.462;2024-02-21T15:20:14;11.20;99.90
75430;DHT22;64127;51.488;5.462;2024-02-21T15:22:46;11.20;99.90
75430;DHT22;64127;51.488;5.462;2024-02-21T15:25:18;11.20;99.90
75430;DHT22;64127;51.488;5.462;2024-02-21T15:27:50;11.10;99.90
75430;DHT22;64127;51.488;5.462;2024-02-21T15:30:22;11.10;99.90
75430;DHT22;64127;51.488;5.462;2024-02-21T15:32:54;11.00;99.90
75430;DHT22;64127;51.488;5.462;2024-02-21T15:35:28;11.00;99.90
75430;DHT22;64127;51.488;5.462;2024-02-21T15:38:01;11.00;99.90
75430;DHT22;64127;51.488;5.462;2024-02-21T15:40:33;11.00;99.90
75430;DHT22;64127;51.488;5.462;2024-02-21T15:43:07;10.90;99.90
75430;DHT22;64127;51.488;5.462;2024-02-21T15:45:40;10.90;99.90
75430;DHT22;64127;51.488;5.462;2024-02-21T15:48:11;10.80;99.90
75430;DHT22;64127;51.488;5.462;2024-02-21T15:50:45;10.80;99.90
75430;DHT22;64127;51.488;5.462;2024-02-21T15:53:17;10.70;99.90
75430;DHT22;64127;51.488;5.462;2024-02-21T15:55:49;10.70;99.90
75430;DHT22;64127;51.488;5.462;2024-02-21T15:58:22;10.70;99.90
75430;DHT22;64127;51.488;5.462;2024-02-21T16:00:54;10.70;99.90
75430;DHT22;64127;51.488;5.462;2024-02-21T16:03:26;10.60;99.90
75430;DHT22;64127;51.488;5.462;2024-02-21T16:05:58;10.60;99.90
75430;DHT22;64127;51.488;5.462;2024-02-21T16:08:30;10.50;99.90
75430;DHT22;64127;51.488;5.462;2024-02-21T16:11:03;10.50;99.90
75430;DHT22;64127;51.488;5.462;2024-02-21T16:13:35;10.50;99.90
75430;DHT22;64127;51.488;5.462;2024-02-21T16:16:09;10.50;99.90
75430;DHT22;64127;51.488;5.462;2024-02-21T16:18:41;10.40;99.90
75430;DHT22;64127;51.488;5.462;2024-02-21T16:21:14;10.40;99.90